createdAt,value
2018-09-19T00:01:01.424Z,2.87
2018-09-19T00:03:29.639Z,3.50
2018-09-19T00:05:57.884Z,2.70
2018-09-19T00:08:26.088Z,3.53
2018-09-19T00:10:54.373Z,4.10
2018-09-19T00:13:22.619Z,3.90
2018-09-19T00:15:50.879Z,2.80
2018-09-19T00:18:19.098Z,3.77
2018-09-19T00:20:47.366Z,3.23
2018-09-19T00:23:15.610Z,3.87
2018-09-19T00:25:43.867Z,4.07
2018-09-19T00:28:12.152Z,4.60
2018-09-19T00:30:40.389Z,3.63
2018-09-19T00:33:08.640Z,3.60
2018-09-19T00:35:36.936Z,3.10
2018-09-19T00:38:05.184Z,3.27
2018-09-19T00:40:33.423Z,4.23
2018-09-19T00:43:01.696Z,4.43
2018-09-19T00:45:29.904Z,3.77
2018-09-19T00:47:58.365Z,3.90
2018-09-19T00:50:26.584Z,4.40
2018-09-19T00:52:54.828Z,3.80
2018-09-19T00:55:23.069Z,5.90
2018-09-19T00:57:51.311Z,3.70
2018-09-19T01:00:19.592Z,3.67
2018-09-19T01:02:48.592Z,3.47
2018-09-19T01:05:18.032Z,4.10
2018-09-19T01:07:47.203Z,4.03
2018-09-19T01:10:15.437Z,4.30
2018-09-19T01:12:43.663Z,4.00
2018-09-19T01:15:11.915Z,3.70
2018-09-19T01:17:40.141Z,4.07
2018-09-19T01:20:08.625Z,4.07
2018-09-19T01:22:36.952Z,3.73
2018-09-19T01:25:05.210Z,3.40
2018-09-19T01:27:33.427Z,3.67
2018-09-19T01:30:01.674Z,2.60
2018-09-19T01:32:29.883Z,3.13
2018-09-19T01:34:58.205Z,2.70
2018-09-19T01:37:26.452Z,2.47
2018-09-19T01:39:54.682Z,3.77
2018-09-19T01:42:22.890Z,3.20
2018-09-19T01:44:51.155Z,3.20
2018-09-19T01:47:19.387Z,3.83
2018-09-19T01:49:47.615Z,2.80
2018-09-19T01:52:15.863Z,3.40
2018-09-19T01:54:44.066Z,3.70
2018-09-19T01:57:12.311Z,3.80
2018-09-19T01:59:40.556Z,3.70
2018-09-19T02:02:08.826Z,3.23
2018-09-19T02:04:37.157Z,3.30
2018-09-19T02:07:05.402Z,4.10
2018-09-19T02:09:33.634Z,5.50
2018-09-19T02:12:01.893Z,4.40
2018-09-19T02:14:30.108Z,4.30
2018-09-19T02:16:58.346Z,4.77
2018-09-19T02:19:26.565Z,3.60
2018-09-19T02:21:55.791Z,5.27
2018-09-19T02:24:24.011Z,4.90
2018-09-19T02:26:52.255Z,4.30
2018-09-19T02:29:20.503Z,4.40
2018-09-19T02:31:48.714Z,4.70
2018-09-19T02:34:17.080Z,5.07
2018-09-19T02:36:45.310Z,5.33
2018-09-19T02:39:13.537Z,4.93
2018-09-19T02:41:41.805Z,4.63
2018-09-19T02:46:44.721Z,5.50
2018-09-19T02:49:12.964Z,5.50
2018-09-19T02:51:41.209Z,5.40
2018-09-19T02:54:09.455Z,6.50
2018-09-19T02:56:37.696Z,6.03
2018-09-19T02:59:05.961Z,5.70
2018-09-19T03:01:34.203Z,6.83
2018-09-19T03:04:04.231Z,6.00
2018-09-19T03:06:32.471Z,6.43
2018-09-19T03:09:00.687Z,6.30
2018-09-19T03:11:29.016Z,6.13
2018-09-19T03:13:57.304Z,6.70
2018-09-19T03:16:25.540Z,6.40
2018-09-19T03:18:53.777Z,8.13
2018-09-19T03:21:21.992Z,7.20
2018-09-19T03:23:50.245Z,7.73
2018-09-19T03:26:18.463Z,7.73
2018-09-19T03:28:46.711Z,8.00
2018-09-19T03:31:14.969Z,7.40
2018-09-19T03:33:43.319Z,7.50
2018-09-19T03:36:11.599Z,7.57
2018-09-19T03:38:39.858Z,9.10
2018-09-19T03:41:08.083Z,9.00
2018-09-19T03:43:36.783Z,7.07
2018-09-19T03:46:04.983Z,9.40
2018-09-19T03:48:33.163Z,8.70
2018-09-19T03:51:01.395Z,8.87
2018-09-19T03:53:29.574Z,8.63
2018-09-19T03:55:57.746Z,7.47
2018-09-19T03:58:25.958Z,8.50
2018-09-19T04:00:54.154Z,9.53
2018-09-19T04:03:22.352Z,9.30
2018-09-19T04:05:50.539Z,8.17
2018-09-19T04:08:18.772Z,9.10
2018-09-19T04:10:46.994Z,8.70
2018-09-19T04:13:15.182Z,8.00
2018-09-19T04:15:43.419Z,8.33
2018-09-19T04:18:11.634Z,8.07
2018-09-19T04:20:39.815Z,9.33
2018-09-19T04:23:08.019Z,8.83
2018-09-19T04:25:36.292Z,9.37
2018-09-19T04:28:04.480Z,8.93
2018-09-19T04:30:32.675Z,9.97
2018-09-19T04:33:00.859Z,9.50
2018-09-19T04:35:29.073Z,9.30
2018-09-19T04:37:57.311Z,10.30
2018-09-19T04:40:25.506Z,10.47
2018-09-19T04:42:53.721Z,9.50
2018-09-19T04:45:21.989Z,8.77
2018-09-19T04:47:50.171Z,10.30
2018-09-19T04:50:18.371Z,10.27
2018-09-19T04:52:46.589Z,9.40
2018-09-19T04:55:14.784Z,11.47
2018-09-19T04:57:42.996Z,9.17
2018-09-19T05:00:11.215Z,9.57
2018-09-19T05:02:39.399Z,7.90
2018-09-19T05:05:07.675Z,9.33
2018-09-19T05:07:35.854Z,9.23
2018-09-19T05:10:04.031Z,8.50
2018-09-19T05:12:32.236Z,9.43
2018-09-19T05:15:00.451Z,8.70
2018-09-19T05:17:28.654Z,9.40
2018-09-19T05:19:56.896Z,8.37
2018-09-19T05:22:31.690Z,8.80
2018-09-19T05:25:00.062Z,8.93
2018-09-19T05:27:28.327Z,8.20
2018-09-19T05:29:56.514Z,7.40
2018-09-19T05:32:24.924Z,8.47
2018-09-19T05:34:53.951Z,8.60
2018-09-19T05:37:22.259Z,8.00
2018-09-19T05:39:51.314Z,7.50
2018-09-19T05:42:20.261Z,8.60
2018-09-19T05:44:49.357Z,9.00
2018-09-19T05:47:17.554Z,8.63
2018-09-19T05:49:45.972Z,9.00
2018-09-19T05:52:14.183Z,9.53
2018-09-19T05:54:42.469Z,9.10
2018-09-19T05:57:10.660Z,9.40
2018-09-19T05:59:38.882Z,9.47
2018-09-19T06:02:07.096Z,8.87
2018-09-19T06:04:35.303Z,8.10
2018-09-19T06:07:03.507Z,8.40
2018-09-19T06:09:31.660Z,8.00
2018-09-19T06:11:59.886Z,8.60
2018-09-19T06:14:28.089Z,8.10
2018-09-19T06:16:56.310Z,8.80
2018-09-19T06:19:24.527Z,7.93
2018-09-19T06:21:53.225Z,8.97
2018-09-19T06:24:21.584Z,8.10
2018-09-19T06:26:49.809Z,9.17
2018-09-19T06:29:17.984Z,7.00
2018-09-19T06:31:46.280Z,8.60
2018-09-19T06:34:14.519Z,8.57
2018-09-19T06:36:42.824Z,7.50
2018-09-19T06:39:11.618Z,8.63
2018-09-19T06:41:40.173Z,11.73
2018-09-19T06:44:08.381Z,8.17
2018-09-19T06:46:36.619Z,9.40
2018-09-19T06:49:04.916Z,8.23
2018-09-19T06:51:33.147Z,8.60
2018-09-19T06:54:01.509Z,8.10
2018-09-19T06:56:29.691Z,8.43
2018-09-19T06:58:57.890Z,9.00
2018-09-19T07:01:26.118Z,9.83
2018-09-19T07:03:54.308Z,10.57
2018-09-19T07:06:22.551Z,9.50
2018-09-19T07:08:50.749Z,9.93
2018-09-19T07:11:18.935Z,8.63
2018-09-19T07:13:47.344Z,9.70
2018-09-19T07:16:15.571Z,9.80
2018-09-19T07:18:43.778Z,9.93
2018-09-19T07:21:11.967Z,9.40
2018-09-19T07:23:40.356Z,10.20
2018-09-19T07:26:08.606Z,9.13
2018-09-19T07:28:36.815Z,9.30
2018-09-19T07:31:05.027Z,10.83
2018-09-19T07:33:33.216Z,8.37
2018-09-19T07:36:01.418Z,9.50
2018-09-19T07:38:29.632Z,11.57
2018-09-19T07:40:58.414Z,10.57
2018-09-19T07:43:26.598Z,9.30
2018-09-19T07:45:54.912Z,9.20
2018-09-19T07:48:23.107Z,8.83
2018-09-19T07:50:51.322Z,8.97
2018-09-19T07:53:19.691Z,7.97
2018-09-19T07:55:47.863Z,8.50
2018-09-19T07:58:16.109Z,10.10
2018-09-19T08:00:44.505Z,9.60
2018-09-19T08:03:12.779Z,9.50
2018-09-19T08:05:40.990Z,7.33
2018-09-19T08:08:09.200Z,9.27
2018-09-19T08:10:37.500Z,9.37
2018-09-19T08:13:05.708Z,7.87
2018-09-19T08:15:33.950Z,9.57
2018-09-19T08:18:02.175Z,9.40
2018-09-19T08:20:30.397Z,9.73
2018-09-19T08:22:58.601Z,9.20
2018-09-19T08:25:26.807Z,10.17
2018-09-19T08:27:55.004Z,8.30
2018-09-19T08:30:23.312Z,8.37
2018-09-19T08:32:51.499Z,9.10
2018-09-19T08:35:19.771Z,8.50
2018-09-19T08:37:47.984Z,8.53
2018-09-19T08:40:16.199Z,9.50
2018-09-19T08:42:44.402Z,9.50
2018-09-19T08:45:12.668Z,8.80
2018-09-19T08:47:40.884Z,8.77
2018-09-19T08:50:09.071Z,7.03
2018-09-19T08:52:37.252Z,8.73
2018-09-19T08:55:05.484Z,9.97
2018-09-19T08:57:33.668Z,7.47
2018-09-19T09:00:01.901Z,7.60
2018-09-19T09:02:30.113Z,8.70
2018-09-19T09:04:58.291Z,7.60
2018-09-19T09:07:26.647Z,8.23
2018-09-19T09:09:54.864Z,7.33
2018-09-19T09:12:23.129Z,5.80
2018-09-19T09:14:51.379Z,6.60
2018-09-19T09:17:19.810Z,7.40
2018-09-19T09:19:48.031Z,6.07
2018-09-19T09:22:16.219Z,3.83
2018-09-19T09:24:44.431Z,7.03
2018-09-19T09:27:12.744Z,5.60
2018-09-19T09:29:41.118Z,5.27
2018-09-19T09:32:09.417Z,4.67
2018-09-19T09:34:37.612Z,6.37
2018-09-19T09:37:05.856Z,6.50
2018-09-19T09:39:34.036Z,5.47
2018-09-19T09:42:02.521Z,5.00
2018-09-19T09:44:30.875Z,5.60
2018-09-19T09:46:59.091Z,5.40
2018-09-19T09:49:28.212Z,5.60
2018-09-19T09:51:56.430Z,5.17
2018-09-19T09:54:24.661Z,3.60
2018-09-19T09:56:52.843Z,4.60
2018-09-19T09:59:21.037Z,5.10
2018-09-19T10:01:49.270Z,4.20
2018-09-19T10:04:17.596Z,5.00
2018-09-19T10:06:45.857Z,3.83
2018-09-19T10:09:14.051Z,4.90
2018-09-19T10:11:42.282Z,3.00
2018-09-19T10:14:10.664Z,4.03
2018-09-19T10:16:38.917Z,3.80
2018-09-19T10:19:07.115Z,4.53
2018-09-19T10:21:35.299Z,3.50
2018-09-19T10:24:03.563Z,3.30
2018-09-19T10:26:31.778Z,3.70
2018-09-19T10:29:00.018Z,2.43
2018-09-19T10:31:28.266Z,2.50
2018-09-19T10:33:56.480Z,3.63
2018-09-19T10:36:24.662Z,3.87
2018-09-19T10:38:52.872Z,3.10
2018-09-19T10:41:21.071Z,3.00
2018-09-19T10:43:49.524Z,3.33
2018-09-19T10:46:17.675Z,3.17
2018-09-19T10:48:45.849Z,2.60
2018-09-19T10:51:14.086Z,3.70
2018-09-19T10:53:42.299Z,3.17
2018-09-19T10:56:10.581Z,3.43
2018-09-19T10:58:38.792Z,2.30
2018-09-19T11:01:06.999Z,2.27
2018-09-19T11:03:35.211Z,3.87
2018-09-19T11:06:03.404Z,4.17
2018-09-19T11:08:31.608Z,2.50
2018-09-19T11:10:59.841Z,3.80
2018-09-19T11:13:28.183Z,3.80
2018-09-19T11:15:56.406Z,3.23
2018-09-19T11:18:24.634Z,3.73
2018-09-19T11:20:52.854Z,4.00
2018-09-19T11:23:21.050Z,3.30
2018-09-19T11:25:49.233Z,4.00
2018-09-19T11:28:17.494Z,3.40
2018-09-19T11:30:45.711Z,2.70
2018-09-19T11:33:13.974Z,2.97
2018-09-19T11:35:42.159Z,3.00
2018-09-19T11:38:10.365Z,4.17
2018-09-19T11:40:38.579Z,3.30
2018-09-19T11:43:06.906Z,3.47
2018-09-19T11:45:35.105Z,2.57
2018-09-19T11:48:03.311Z,4.70
2018-09-19T11:50:31.510Z,4.07
2018-09-19T11:52:59.755Z,4.20
2018-09-19T11:55:27.932Z,4.27
2018-09-19T11:57:56.171Z,4.20
2018-09-19T12:00:24.343Z,3.43
2018-09-19T12:02:52.580Z,4.50
2018-09-19T12:05:21.078Z,4.43
2018-09-19T12:07:49.271Z,3.90
2018-09-19T12:10:17.699Z,5.10
2018-09-19T12:12:45.886Z,3.93
2018-09-19T12:15:14.095Z,4.63
2018-09-19T12:17:42.334Z,6.70
2018-09-19T12:20:10.753Z,3.00
2018-09-19T12:22:38.954Z,4.50
2018-09-19T12:25:07.166Z,4.03
2018-09-19T12:27:35.382Z,2.77
2018-09-19T12:30:03.652Z,3.70
2018-09-19T12:32:32.386Z,3.03
2018-09-19T12:35:00.757Z,4.70
2018-09-19T12:37:28.942Z,4.27
2018-09-19T12:39:57.171Z,3.70
2018-09-19T12:42:25.376Z,3.87
2018-09-19T12:44:53.618Z,3.00
2018-09-19T12:47:21.802Z,4.00
2018-09-19T12:49:50.774Z,4.10
2018-09-19T12:52:19.035Z,4.27
2018-09-19T12:54:47.255Z,4.00
2018-09-19T12:57:15.421Z,5.70
2018-09-19T12:59:43.613Z,4.63
2018-09-19T13:02:11.812Z,3.10
2018-09-19T13:04:40.023Z,3.63
2018-09-19T13:07:08.295Z,4.63
2018-09-19T13:09:36.511Z,4.67
2018-09-19T13:12:04.727Z,3.73
2018-09-19T13:14:32.935Z,4.50
2018-09-19T13:17:01.149Z,3.77
2018-09-19T13:19:29.345Z,2.87
2018-09-19T13:21:57.558Z,3.10
2018-09-19T13:24:25.729Z,3.00
2018-09-19T13:26:53.968Z,3.10
2018-09-19T13:29:22.202Z,2.50
2018-09-19T13:31:50.382Z,3.70
2018-09-19T13:34:18.757Z,2.83
2018-09-19T13:36:46.960Z,2.37
2018-09-19T13:39:15.164Z,3.07
2018-09-19T13:41:43.337Z,2.63
2018-09-19T13:44:11.758Z,2.60
2018-09-19T13:46:39.955Z,3.13
2018-09-19T13:49:12.726Z,1.90
2018-09-19T13:51:40.955Z,3.27
2018-09-19T13:54:09.128Z,2.90
2018-09-19T13:56:37.290Z,2.53
2018-09-19T13:59:05.629Z,3.40
2018-09-19T14:01:33.840Z,2.73
2018-09-19T14:04:02.189Z,2.77
2018-09-19T14:06:30.396Z,2.27
2018-09-19T14:08:58.585Z,3.37
2018-09-19T14:11:26.798Z,2.53
2018-09-19T14:13:55.011Z,3.10
2018-09-19T14:16:23.252Z,2.90
2018-09-19T14:18:51.486Z,3.47
2018-09-19T14:21:19.679Z,2.83
2018-09-19T14:23:47.868Z,2.87
2018-09-19T14:26:16.175Z,2.83
2018-09-19T14:28:44.380Z,2.20
2018-09-19T14:31:12.617Z,2.60
2018-09-19T14:33:40.866Z,2.80
2018-09-19T14:36:09.106Z,2.57
2018-09-19T14:38:37.299Z,2.60
2018-09-19T14:41:05.557Z,2.70
2018-09-19T14:43:33.763Z,2.70
2018-09-19T14:46:02.002Z,2.43
2018-09-19T14:48:30.215Z,2.27
2018-09-19T14:50:58.396Z,2.93
2018-09-19T14:53:26.615Z,3.07
2018-09-19T14:55:54.816Z,2.70
2018-09-19T14:58:23.015Z,3.40
2018-09-19T15:00:51.224Z,2.30
2018-09-19T15:03:19.434Z,2.70
2018-09-19T15:05:47.656Z,3.20
2018-09-19T15:08:15.895Z,2.93
2018-09-19T15:10:44.126Z,2.97
2018-09-19T15:13:12.323Z,3.33
2018-09-19T15:15:40.528Z,3.60
2018-09-19T15:18:08.819Z,2.77
2018-09-19T15:20:36.996Z,2.93
2018-09-19T15:23:05.200Z,3.00
2018-09-19T15:25:33.510Z,3.47
2018-09-19T15:28:01.751Z,3.07
2018-09-19T15:30:29.954Z,4.40
2018-09-19T15:32:58.143Z,2.23
2018-09-19T15:35:26.352Z,3.50
2018-09-19T15:37:54.815Z,3.47
2018-09-19T15:40:23.018Z,3.47
2018-09-19T15:42:51.204Z,2.60
2018-09-19T15:45:19.411Z,4.10
2018-09-19T15:47:47.675Z,3.10
2018-09-19T15:50:15.854Z,3.30
2018-09-19T15:52:44.031Z,3.57
2018-09-19T15:55:12.403Z,2.93
2018-09-19T15:57:40.620Z,2.93
2018-09-19T16:00:08.835Z,2.50
2018-09-19T16:02:37.024Z,3.30
2018-09-19T16:05:05.247Z,2.77
2018-09-19T16:07:34.164Z,3.70
2018-09-19T16:10:02.479Z,4.37
2018-09-19T16:12:30.855Z,3.70
2018-09-19T16:14:59.075Z,4.30
2018-09-19T16:17:27.251Z,3.00
2018-09-19T16:19:55.456Z,3.57
2018-09-19T16:22:23.846Z,4.07
2018-09-19T16:24:52.131Z,3.97
2018-09-19T16:27:20.332Z,3.70
2018-09-19T16:29:48.565Z,4.27
2018-09-19T16:32:16.899Z,3.53
2018-09-19T16:34:45.081Z,3.60
2018-09-19T16:37:13.322Z,3.57
2018-09-19T16:39:41.512Z,5.13
2018-09-19T16:42:09.715Z,3.53
2018-09-19T16:44:37.922Z,2.47
2018-09-19T16:47:06.099Z,4.50
2018-09-19T16:49:34.303Z,4.77
2018-09-19T16:52:02.503Z,3.70
2018-09-19T16:54:30.858Z,3.43
2018-09-19T16:56:59.039Z,3.07
2018-09-19T16:59:27.278Z,3.33
2018-09-19T17:01:55.582Z,3.57
2018-09-19T17:04:24.042Z,4.07
2018-09-19T17:06:54.130Z,3.67
2018-09-19T17:09:23.081Z,4.83
2018-09-19T17:11:51.353Z,5.80
2018-09-19T17:14:19.901Z,2.83
2018-09-19T17:16:48.667Z,4.70
2018-09-19T17:19:17.181Z,3.70
2018-09-19T17:21:45.572Z,3.63
2018-09-19T17:24:14.254Z,3.80
2018-09-19T17:26:42.661Z,3.20
2018-09-19T17:29:11.122Z,4.80
2018-09-19T17:31:39.702Z,3.87
2018-09-19T17:34:08.179Z,3.50
2018-09-19T17:36:36.352Z,4.00
2018-09-19T17:39:09.003Z,3.90
2018-09-19T17:41:37.213Z,3.77
2018-09-19T17:44:05.565Z,4.60
2018-09-19T17:46:33.762Z,3.80
2018-09-19T17:49:02.701Z,3.87
2018-09-19T17:51:31.306Z,3.07
2018-09-19T17:54:00.342Z,4.10
2018-09-19T17:56:28.508Z,4.77
2018-09-19T17:58:56.757Z,5.00
2018-09-19T18:01:24.935Z,7.40
2018-09-19T18:03:53.235Z,7.37
2018-09-19T18:06:21.416Z,7.23
2018-09-19T18:08:49.654Z,6.80
2018-09-19T18:11:17.836Z,5.50
2018-09-19T18:13:46.035Z,4.20
2018-09-19T18:16:14.248Z,4.67
2018-09-19T18:18:42.445Z,4.10
2018-09-19T18:21:10.888Z,4.80
2018-09-19T18:23:39.301Z,3.90
2018-09-19T18:26:07.519Z,4.07
2018-09-19T18:28:36.079Z,3.70
2018-09-19T18:31:04.307Z,3.80
2018-09-19T18:33:32.526Z,4.40
2018-09-19T18:36:00.698Z,4.23
2018-09-19T18:38:28.921Z,3.90
2018-09-19T18:40:57.058Z,3.33
2018-09-19T18:43:25.680Z,3.90
2018-09-19T18:45:53.915Z,4.53
2018-09-19T18:48:22.593Z,3.80
2018-09-19T18:50:50.805Z,3.70
2018-09-19T18:53:19.838Z,4.40
2018-09-19T18:55:48.322Z,4.90
2018-09-19T18:58:16.670Z,3.60
2018-09-19T19:00:45.889Z,3.97
2018-09-19T19:03:14.131Z,3.80
2018-09-19T19:05:42.306Z,3.67
2018-09-19T19:08:10.474Z,6.00
2018-09-19T19:10:38.700Z,4.07
2018-09-19T19:13:06.910Z,4.00
2018-09-19T19:15:41.969Z,4.00
2018-09-19T19:18:10.114Z,4.70
2018-09-19T19:20:38.422Z,4.40
2018-09-19T19:23:06.658Z,3.83
2018-09-19T19:25:34.917Z,4.93
2018-09-19T19:28:03.208Z,4.53
2018-09-19T19:30:31.558Z,3.70
2018-09-19T19:32:59.627Z,3.80
2018-09-19T19:35:27.879Z,4.07
2018-09-19T19:37:56.924Z,4.13
2018-09-19T19:40:25.773Z,3.90
2018-09-19T19:42:54.014Z,4.90
2018-09-19T19:45:22.723Z,3.93
2018-09-19T19:47:50.925Z,3.83
2018-09-19T19:50:19.112Z,4.20
2018-09-19T19:52:47.308Z,4.33
2018-09-19T19:55:15.567Z,4.10
2018-09-19T19:57:43.722Z,4.27
2018-09-19T20:00:11.915Z,4.10
2018-09-19T20:02:40.134Z,4.47
2018-09-19T20:05:08.508Z,4.57
2018-09-19T20:07:36.686Z,3.97
2018-09-19T20:10:04.909Z,4.43
2018-09-19T20:12:33.134Z,3.77
2018-09-19T20:15:01.541Z,3.87
2018-09-19T20:17:29.814Z,4.07
2018-09-19T20:19:57.994Z,3.90
2018-09-19T20:22:26.213Z,3.80
2018-09-19T20:24:54.402Z,3.70
2018-09-19T20:27:22.811Z,5.00
2018-09-19T20:29:51.097Z,4.00
2018-09-19T20:32:19.294Z,3.77
2018-09-19T20:34:47.552Z,3.93
2018-09-19T20:37:15.748Z,3.77
2018-09-19T20:39:43.935Z,3.97
2018-09-19T20:42:12.155Z,4.60
2018-09-19T20:44:40.535Z,4.70
2018-09-19T20:47:08.736Z,5.20
2018-09-19T20:49:36.939Z,4.00
2018-09-19T20:52:05.219Z,4.50
2018-09-19T20:54:33.367Z,4.90
2018-09-19T20:57:01.635Z,4.73
2018-09-19T20:59:29.852Z,4.30
2018-09-19T21:01:58.590Z,4.20
2018-09-19T21:04:27.601Z,4.03
2018-09-19T21:06:55.763Z,4.17
2018-09-19T21:09:23.959Z,3.93
2018-09-19T21:11:52.163Z,4.37
2018-09-19T21:14:20.462Z,4.50
2018-09-19T21:16:48.627Z,4.67
2018-09-19T21:19:16.840Z,5.50
2018-09-19T21:21:45.103Z,3.93
2018-09-19T21:24:13.284Z,4.53
2018-09-19T21:26:41.475Z,4.57
2018-09-19T21:29:09.719Z,4.90
2018-09-19T21:31:37.936Z,4.97
2018-09-19T21:34:06.531Z,4.50
2018-09-19T21:36:34.713Z,4.33
2018-09-19T21:39:02.928Z,4.53
2018-09-19T21:41:31.153Z,4.40
2018-09-19T21:43:59.526Z,4.70
2018-09-19T21:46:28.049Z,4.00
2018-09-19T21:48:56.388Z,4.33
2018-09-19T21:51:24.681Z,4.50
2018-09-19T21:53:52.876Z,4.03
2018-09-19T21:56:21.175Z,4.43
2018-09-19T21:58:49.386Z,4.30
2018-09-19T22:01:21.834Z,4.10
2018-09-19T22:03:50.312Z,4.80
2018-09-19T22:06:18.513Z,4.37
2018-09-19T22:08:46.745Z,4.77
2018-09-19T22:11:15.055Z,4.47
2018-09-19T22:13:43.412Z,4.20
2018-09-19T22:16:11.611Z,5.27
2018-09-19T22:18:39.819Z,4.63
2018-09-19T22:21:08.016Z,4.33
2018-09-19T22:23:36.249Z,4.77
2018-09-19T22:26:04.475Z,3.87
2018-09-19T22:28:32.671Z,5.37
2018-09-19T22:31:00.881Z,5.40
2018-09-19T22:33:29.134Z,4.13
2018-09-19T22:35:57.289Z,4.63
2018-09-19T22:38:25.471Z,4.80
2018-09-19T22:40:53.663Z,4.50
2018-09-19T22:43:21.851Z,4.10
2018-09-19T22:45:50.043Z,4.40
2018-09-19T22:50:52.735Z,5.27
2018-09-19T22:53:20.943Z,4.10
2018-09-19T22:55:49.139Z,3.57
2018-09-19T22:58:17.391Z,4.40
2018-09-19T23:00:46.796Z,4.37
2018-09-19T23:03:15.107Z,4.47
2018-09-19T23:05:43.303Z,4.20
2018-09-19T23:08:11.514Z,4.60
2018-09-19T23:10:39.707Z,4.47
2018-09-19T23:13:07.936Z,3.97
2018-09-19T23:15:36.139Z,5.40
2018-09-19T23:18:04.323Z,4.30
2018-09-19T23:20:32.536Z,4.50
2018-09-19T23:23:00.708Z,4.70
2018-09-19T23:25:29.006Z,5.53
2018-09-19T23:27:57.195Z,4.03
2018-09-19T23:30:25.407Z,4.97
2018-09-19T23:32:53.603Z,3.20
2018-09-19T23:35:21.832Z,4.00
2018-09-19T23:37:50.019Z,3.93
2018-09-19T23:40:18.251Z,6.20
2018-09-19T23:42:46.471Z,5.13
2018-09-19T23:45:14.695Z,4.00
2018-09-19T23:47:42.904Z,4.53
2018-09-19T23:50:11.148Z,4.10
2018-09-19T23:52:39.367Z,5.27
2018-09-19T23:55:07.711Z,4.87
2018-09-19T23:57:35.912Z,4.50
